Aérodrome :
LOGIN :

S'inscrire | Disclaimer

   EN    FR    IT 

 










Légende :    VFR   VFR Marginal   IFR   IFR Intensif   IFR Très Intensif
Visi : 
Plafond : 
>= 8 km
>= 3000ft
5 à 8 km
1000 à 3000 ft
1500m à 5 km
500 à 1000 ft
800 à 1500m
200 à 500 ft
< 800m
< 200 ft
Symboles :   Orages  Brouillard  Fortes neiges  Fortes précipitations  Vent > 20 kt
SIGMETs :   Divers  Orages  Givrage  Turbulence  Onde Orograph.  Cendres Volcan.






- Altitude de l'aérodrome : 8 ft
- Code IATA : LCA


LCLK - Larnaca Int.

DERNIER METAR :
  • 200800Z 04014KT 9999 FEW030 13/05 Q1022 NOSIG

METARs EXPIRÉS :
  • 200730Z 03014KT 9999 FEW030 14/06 Q1022 NOSIG
  • 200700Z 04014KT 9999 FEW030 SCT060 13/07 Q1022 NOSIG
  • 200630Z 05016KT 9999 FEW030 SCT060 11/08 Q1021 NOSIG
  • 200600Z 35004KT 9999 FEW030 SCT040 10/07 Q1021 NOSIG
  • 200530Z 29003KT 9999 FEW030 SCT040 09/07 Q1021 NOSIG

TAF TAF LCLK
Valide du 20 à 06h jusqu'au 21 à 06h UTC


200530Z 2006/2106 01015KT 9999 FEW020 SCT050
PROB30
TEMPO 2006/2015 5000 SHRA SCT020TCU



MET'MAP, la Météo Aéronautique d'un coup d'oeil ! - Copyright ORBIFLY Décembre 2007 - Disclaimer

ORBIFLY MET'MAP TEAM :

Programmation & Développement : Alexandra Zaïnal
Sur une idée originale de : Baudouin d'Aumeries
Assistance à la programmation : Marc-Olivier Méhu
Soutien technique & logistique : Manuel Goepfert

Contact : metmap@orbifly.com




SOURCES & CREDITS :

   NOAA